sensor_id;sensor_type;location;lat;lon;timestamp;P1;durP1;ratioP1;P2;durP2;ratioP2
34673;SDS011;20879;55.668;37.858;2023-05-07T00:00:16;4.43;;;2.80;;
34673;SDS011;20879;55.668;37.858;2023-05-07T00:02:50;2.90;;;2.60;;
34673;SDS011;20879;55.668;37.858;2023-05-07T00:05:25;4.75;;;2.70;;
34673;SDS011;20879;55.668;37.858;2023-05-07T00:07:55;5.93;;;3.15;;
34673;SDS011;20879;55.668;37.858;2023-05-07T00:10:25;4.85;;;2.35;;
34673;SDS011;20879;55.668;37.858;2023-05-07T00:12:55;4.57;;;3.00;;
34673;SDS011;20879;55.668;37.858;2023-05-07T00:15:27;4.70;;;3.15;;
34673;SDS011;20879;55.668;37.858;2023-05-07T00:17:56;5.45;;;3.10;;
34673;SDS011;20879;55.668;37.858;2023-05-07T00:20:26;3.97;;;2.88;;
34673;SDS011;20879;55.668;37.858;2023-05-07T00:22:55;5.07;;;3.15;;
34673;SDS011;20879;55.668;37.858;2023-05-07T00:25:25;4.47;;;2.95;;
34673;SDS011;20879;55.668;37.858;2023-05-07T00:27:54;5.28;;;2.80;;
34673;SDS011;20879;55.668;37.858;2023-05-07T00:30:24;3.55;;;2.50;;
34673;SDS011;20879;55.668;37.858;2023-05-07T00:35:24;4.88;;;2.97;;
34673;SDS011;20879;55.668;37.858;2023-05-07T00:37:55;8.20;;;3.17;;
34673;SDS011;20879;55.668;37.858;2023-05-07T00:40:24;5.55;;;2.90;;
34673;SDS011;20879;55.668;37.858;2023-05-07T00:43:00;8.10;;;3.33;;
34673;SDS011;20879;55.668;37.858;2023-05-07T00:45:37;4.88;;;3.17;;
34673;SDS011;20879;55.668;37.858;2023-05-07T00:48:06;6.82;;;3.30;;
34673;SDS011;20879;55.668;37.858;2023-05-07T00:50:36;5.75;;;2.75;;
34673;SDS011;20879;55.668;37.858;2023-05-07T00:53:10;7.18;;;3.55;;
34673;SDS011;20879;55.668;37.858;2023-05-07T00:55:40;5.72;;;3.90;;
34673;SDS011;20879;55.668;37.858;2023-05-07T00:58:14;7.05;;;3.17;;
34673;SDS011;20879;55.668;37.858;2023-05-07T01:00:51;4.28;;;3.15;;
34673;SDS011;20879;55.668;37.858;2023-05-07T01:03:21;9.30;;;3.30;;
34673;SDS011;20879;55.668;37.858;2023-05-07T01:08:27;5.40;;;3.40;;
34673;SDS011;20879;55.668;37.858;2023-05-07T01:10:58;5.43;;;3.55;;
34673;SDS011;20879;55.668;37.858;2023-05-07T01:13:35;5.65;;;3.22;;
34673;SDS011;20879;55.668;37.858;2023-05-07T01:16:08;5.45;;;3.17;;
34673;SDS011;20879;55.668;37.858;2023-05-07T01:18:39;4.03;;;3.03;;
34673;SDS011;20879;55.668;37.858;2023-05-07T01:21:10;5.63;;;3.17;;
34673;SDS011;20879;55.668;37.858;2023-05-07T01:23:47;5.03;;;3.42;;
34673;SDS011;20879;55.668;37.858;2023-05-07T01:26:17;6.32;;;3.38;;
34673;SDS011;20879;55.668;37.858;2023-05-07T01:28:48;7.10;;;3.37;;
34673;SDS011;20879;55.668;37.858;2023-05-07T01:31:18;6.55;;;3.35;;
34673;SDS011;20879;55.668;37.858;2023-05-07T01:33:47;4.53;;;3.00;;
34673;SDS011;20879;55.668;37.858;2023-05-07T01:36:20;8.27;;;3.35;;
34673;SDS011;20879;55.668;37.858;2023-05-07T01:38:59;5.95;;;3.40;;
34673;SDS011;20879;55.668;37.858;2023-05-07T01:41:35;3.90;;;2.90;;
34673;SDS011;20879;55.668;37.858;2023-05-07T01:44:05;4.68;;;3.08;;
34673;SDS011;20879;55.668;37.858;2023-05-07T01:46:36;3.90;;;2.90;;
34673;SDS011;20879;55.668;37.858;2023-05-07T01:49:05;4.28;;;3.22;;
34673;SDS011;20879;55.668;37.858;2023-05-07T01:51:35;4.88;;;3.20;;
34673;SDS011;20879;55.668;37.858;2023-05-07T01:54:07;5.57;;;3.00;;
34673;SDS011;20879;55.668;37.858;2023-05-07T01:56:42;5.07;;;3.00;;
34673;SDS011;20879;55.668;37.858;2023-05-07T01:59:11;4.68;;;2.85;;
34673;SDS011;20879;55.668;37.858;2023-05-07T02:01:46;4.90;;;3.28;;
34673;SDS011;20879;55.668;37.858;2023-05-07T02:04:16;7.43;;;3.10;;
34673;SDS011;20879;55.668;37.858;2023-05-07T02:06:45;4.82;;;3.17;;
34673;SDS011;20879;55.668;37.858;2023-05-07T02:09:17;6.15;;;3.30;;
34673;SDS011;20879;55.668;37.858;2023-05-07T02:11:52;5.95;;;3.25;;
34673;SDS011;20879;55.668;37.858;2023-05-07T02:14:22;5.22;;;3.42;;
34673;SDS011;20879;55.668;37.858;2023-05-07T02:16:59;3.05;;;2.53;;
34673;SDS011;20879;55.668;37.858;2023-05-07T02:19:29;4.40;;;3.20;;
34673;SDS011;20879;55.668;37.858;2023-05-07T02:21:58;3.42;;;2.17;;
34673;SDS011;20879;55.668;37.858;2023-05-07T02:24:31;6.13;;;3.05;;
34673;SDS011;20879;55.668;37.858;2023-05-07T02:27:01;4.10;;;2.85;;
34673;SDS011;20879;55.668;37.858;2023-05-07T02:29:32;4.85;;;2.83;;
34673;SDS011;20879;55.668;37.858;2023-05-07T02:32:01;6.22;;;2.72;;
34673;SDS011;20879;55.668;37.858;2023-05-07T02:34:32;9.32;;;3.65;;
34673;SDS011;20879;55.668;37.858;2023-05-07T02:37:01;4.78;;;3.30;;
34673;SDS011;20879;55.668;37.858;2023-05-07T02:39:33;5.45;;;3.00;;
34673;SDS011;20879;55.668;37.858;2023-05-07T02:42:03;4.47;;;3.00;;
34673;SDS011;20879;55.668;37.858;2023-05-07T02:44:53;2.65;;;2.03;;
34673;SDS011;20879;55.668;37.858;2023-05-07T02:47:23;4.03;;;2.70;;
34673;SDS011;20879;55.668;37.858;2023-05-07T02:49:53;4.32;;;2.78;;
34673;SDS011;20879;55.668;37.858;2023-05-07T02:52:23;6.03;;;2.83;;
34673;SDS011;20879;55.668;37.858;2023-05-07T02:54:59;4.57;;;2.97;;
34673;SDS011;20879;55.668;37.858;2023-05-07T02:57:30;6.18;;;3.03;;
34673;SDS011;20879;55.668;37.858;2023-05-07T03:00:06;5.50;;;2.97;;
34673;SDS011;20879;55.668;37.858;2023-05-07T03:02:43;5.30;;;3.20;;
34673;SDS011;20879;55.668;37.858;2023-05-07T03:05:13;5.80;;;3.08;;
34673;SDS011;20879;55.668;37.858;2023-05-07T03:07:43;5.82;;;3.20;;
34673;SDS011;20879;55.668;37.858;2023-05-07T03:10:20;5.70;;;3.30;;
34673;SDS011;20879;55.668;37.858;2023-05-07T03:12:50;4.97;;;3.28;;
34673;SDS011;20879;55.668;37.858;2023-05-07T03:15:19;4.00;;;2.92;;
34673;SDS011;20879;55.668;37.858;2023-05-07T03:17:49;2.72;;;2.17;;
34673;SDS011;20879;55.668;37.858;2023-05-07T03:20:25;4.53;;;2.90;;
34673;SDS011;20879;55.668;37.858;2023-05-07T03:22:55;3.60;;;2.88;;
34673;SDS011;20879;55.668;37.858;2023-05-07T03:25:27;4.22;;;2.92;;
34673;SDS011;20879;55.668;37.858;2023-05-07T03:28:01;4.57;;;3.17;;
34673;SDS011;20879;55.668;37.858;2023-05-07T03:30:47;2.83;;;2.22;;
34673;SDS011;20879;55.668;37.858;2023-05-07T03:33:22;3.88;;;2.40;;
34673;SDS011;20879;55.668;37.858;2023-05-07T03:35:52;3.83;;;2.83;;
34673;SDS011;20879;55.668;37.858;2023-05-07T03:38:23;3.83;;;2.78;;
34673;SDS011;20879;55.668;37.858;2023-05-07T03:41:00;4.10;;;2.30;;
34673;SDS011;20879;55.668;37.858;2023-05-07T03:43:40;3.03;;;2.15;;
34673;SDS011;20879;55.668;37.858;2023-05-07T03:46:16;4.30;;;2.40;;
34673;SDS011;20879;55.668;37.858;2023-05-07T03:48:46;3.75;;;1.50;;
34673;SDS011;20879;55.668;37.858;2023-05-07T03:51:16;5.57;;;2.08;;
34673;SDS011;20879;55.668;37.858;2023-05-07T03:53:56;3.42;;;2.40;;
34673;SDS011;20879;55.668;37.858;2023-05-07T03:56:34;4.32;;;2.50;;
34673;SDS011;20879;55.668;37.858;2023-05-07T03:59:04;5.95;;;2.42;;
34673;SDS011;20879;55.668;37.858;2023-05-07T04:01:34;2.97;;;2.20;;
34673;SDS011;20879;55.668;37.858;2023-05-07T04:04:03;3.40;;;2.10;;
34673;SDS011;20879;55.668;37.858;2023-05-07T04:06:35;3.47;;;2.20;;
34673;SDS011;20879;55.668;37.858;2023-05-07T04:09:04;3.08;;;2.10;;
34673;SDS011;20879;55.668;37.858;2023-05-07T04:11:38;2.40;;;1.98;;
34673;SDS011;20879;55.668;37.858;2023-05-07T04:14:14;2.63;;;2.03;;
34673;SDS011;20879;55.668;37.858;2023-05-07T04:16:43;2.83;;;2.10;;
34673;SDS011;20879;55.668;37.858;2023-05-07T04:19:13;3.28;;;1.80;;
34673;SDS011;20879;55.668;37.858;2023-05-07T04:21:57;3.22;;;2.08;;
34673;SDS011;20879;55.668;37.858;2023-05-07T04:24:31;2.47;;;1.67;;
34673;SDS011;20879;55.668;37.858;2023-05-07T04:27:04;3.47;;;2.28;;
34673;SDS011;20879;55.668;37.858;2023-05-07T04:29:34;3.22;;;1.48;;
34673;SDS011;20879;55.668;37.858;2023-05-07T04:34:45;2.30;;;1.60;;
34673;SDS011;20879;55.668;37.858;2023-05-07T04:37:14;3.63;;;1.50;;
34673;SDS011;20879;55.668;37.858;2023-05-07T04:39:48;2.90;;;1.67;;
34673;SDS011;20879;55.668;37.858;2023-05-07T04:42:37;1.88;;;1.45;;
34673;SDS011;20879;55.668;37.858;2023-05-07T04:45:08;1.95;;;1.75;;
34673;SDS011;20879;55.668;37.858;2023-05-07T04:47:41;2.88;;;1.77;;
34673;SDS011;20879;55.668;37.858;2023-05-07T04:50:10;2.85;;;1.45;;
34673;SDS011;20879;55.668;37.858;2023-05-07T04:52:42;1.80;;;1.27;;
34673;SDS011;20879;55.668;37.858;2023-05-07T04:55:12;1.40;;;1.30;;
34673;SDS011;20879;55.668;37.858;2023-05-07T04:57:49;2.15;;;1.60;;
34673;SDS011;20879;55.668;37.858;2023-05-07T05:00:19;1.98;;;1.20;;
34673;SDS011;20879;55.668;37.858;2023-05-07T05:02:51;2.63;;;1.60;;
34673;SDS011;20879;55.668;37.858;2023-05-07T05:05:22;1.85;;;1.55;;
34673;SDS011;20879;55.668;37.858;2023-05-07T05:08:02;1.40;;;1.00;;
34673;SDS011;20879;55.668;37.858;2023-05-07T05:10:34;1.55;;;1.40;;
34673;SDS011;20879;55.668;37.858;2023-05-07T05:13:07;1.67;;;1.25;;
34673;SDS011;20879;55.668;37.858;2023-05-07T05:15:40;1.30;;;1.15;;
34673;SDS011;20879;55.668;37.858;2023-05-07T05:18:10;2.97;;;1.30;;
34673;SDS011;20879;55.668;37.858;2023-05-07T05:20:39;1.40;;;0.68;;
34673;SDS011;20879;55.668;37.858;2023-05-07T05:23:10;0.77;;;0.77;;
34673;SDS011;20879;55.668;37.858;2023-05-07T05:25:39;1.95;;;1.02;;
34673;SDS011;20879;55.668;37.858;2023-05-07T05:28:13;1.77;;;1.00;;
34673;SDS011;20879;55.668;37.858;2023-05-07T05:30:43;1.33;;;1.23;;
34673;SDS011;20879;55.668;37.858;2023-05-07T05:33:12;1.83;;;1.55;;
34673;SDS011;20879;55.668;37.858;2023-05-07T05:35:42;2.30;;;1.48;;
34673;SDS011;20879;55.668;37.858;2023-05-07T05:38:12;3.45;;;1.00;;
34673;SDS011;20879;55.668;37.858;2023-05-07T05:40:42;0.93;;;0.80;;
34673;SDS011;20879;55.668;37.858;2023-05-07T05:43:13;1.30;;;0.93;;
34673;SDS011;20879;55.668;37.858;2023-05-07T05:45:43;3.45;;;1.77;;
34673;SDS011;20879;55.668;37.858;2023-05-07T05:48:17;3.20;;;1.33;;
34673;SDS011;20879;55.668;37.858;2023-05-07T05:50:47;5.50;;;1.65;;
34673;SDS011;20879;55.668;37.858;2023-05-07T05:53:18;3.42;;;1.70;;
34673;SDS011;20879;55.668;37.858;2023-05-07T05:55:47;5.30;;;1.27;;
34673;SDS011;20879;55.668;37.858;2023-05-07T05:58:20;2.53;;;1.50;;
34673;SDS011;20879;55.668;37.858;2023-05-07T06:00:55;1.92;;;1.40;;
34673;SDS011;20879;55.668;37.858;2023-05-07T06:03:31;2.78;;;1.55;;
34673;SDS011;20879;55.668;37.858;2023-05-07T06:06:05;2.80;;;1.52;;
34673;SDS011;20879;55.668;37.858;2023-05-07T06:08:34;1.58;;;1.35;;
34673;SDS011;20879;55.668;37.858;2023-05-07T06:11:04;2.35;;;1.05;;
34673;SDS011;20879;55.668;37.858;2023-05-07T06:13:38;3.25;;;1.65;;
34673;SDS011;20879;55.668;37.858;2023-05-07T06:16:08;1.85;;;1.42;;
34673;SDS011;20879;55.668;37.858;2023-05-07T06:18:37;2.60;;;1.27;;
34673;SDS011;20879;55.668;37.858;2023-05-07T06:21:07;3.22;;;1.58;;
34673;SDS011;20879;55.668;37.858;2023-05-07T06:23:37;2.10;;;1.60;;
34673;SDS011;20879;55.668;37.858;2023-05-07T06:26:12;3.10;;;1.55;;
34673;SDS011;20879;55.668;37.858;2023-05-07T06:28:48;1.35;;;1.25;;
34673;SDS011;20879;55.668;37.858;2023-05-07T06:31:18;1.55;;;1.42;;
34673;SDS011;20879;55.668;37.858;2023-05-07T06:33:54;1.73;;;1.35;;
34673;SDS011;20879;55.668;37.858;2023-05-07T06:36:29;1.35;;;1.10;;
34673;SDS011;20879;55.668;37.858;2023-05-07T06:39:03;1.95;;;1.02;;
34673;SDS011;20879;55.668;37.858;2023-05-07T06:41:32;2.22;;;1.35;;
34673;SDS011;20879;55.668;37.858;2023-05-07T06:44:18;2.28;;;1.13;;
34673;SDS011;20879;55.668;37.858;2023-05-07T06:47:05;3.17;;;1.20;;
34673;SDS011;20879;55.668;37.858;2023-05-07T06:49:37;1.98;;;1.42;;
34673;SDS011;20879;55.668;37.858;2023-05-07T06:52:07;1.20;;;1.10;;
34673;SDS011;20879;55.668;37.858;2023-05-07T06:54:37;0.93;;;0.90;;
34673;SDS011;20879;55.668;37.858;2023-05-07T06:57:07;2.10;;;1.30;;
34673;SDS011;20879;55.668;37.858;2023-05-07T06:59:45;2.13;;;1.23;;
34673;SDS011;20879;55.668;37.858;2023-05-07T07:02:14;2.67;;;1.38;;
34673;SDS011;20879;55.668;37.858;2023-05-07T07:04:46;1.60;;;1.00;;
34673;SDS011;20879;55.668;37.858;2023-05-07T07:07:15;1.08;;;0.98;;
34673;SDS011;20879;55.668;37.858;2023-05-07T07:09:51;1.33;;;1.17;;
34673;SDS011;20879;55.668;37.858;2023-05-07T07:12:22;1.10;;;1.00;;
34673;SDS011;20879;55.668;37.858;2023-05-07T07:14:54;1.15;;;1.08;;
34673;SDS011;20879;55.668;37.858;2023-05-07T07:17:24;1.13;;;0.95;;
34673;SDS011;20879;55.668;37.858;2023-05-07T07:19:54;1.95;;;0.90;;
34673;SDS011;20879;55.668;37.858;2023-05-07T07:22:24;0.90;;;0.90;;
34673;SDS011;20879;55.668;37.858;2023-05-07T07:24:53;1.58;;;0.95;;
34673;SDS011;20879;55.668;37.858;2023-05-07T07:27:23;1.23;;;0.82;;
34673;SDS011;20879;55.668;37.858;2023-05-07T07:29:56;1.63;;;1.20;;
34673;SDS011;20879;55.668;37.858;2023-05-07T07:32:26;1.10;;;1.00;;
34673;SDS011;20879;55.668;37.858;2023-05-07T07:34:56;1.05;;;0.95;;
34673;SDS011;20879;55.668;37.858;2023-05-07T07:37:28;1.55;;;1.00;;
34673;SDS011;20879;55.668;37.858;2023-05-07T07:39:57;0.95;;;0.93;;
34673;SDS011;20879;55.668;37.858;2023-05-07T07:42:29;2.47;;;1.38;;
34673;SDS011;20879;55.668;37.858;2023-05-07T07:45:02;2.00;;;1.33;;
34673;SDS011;20879;55.668;37.858;2023-05-07T07:47:35;2.22;;;1.40;;
34673;SDS011;20879;55.668;37.858;2023-05-07T07:50:05;1.25;;;0.77;;
34673;SDS011;20879;55.668;37.858;2023-05-07T07:52:36;1.20;;;1.10;;
34673;SDS011;20879;55.668;37.858;2023-05-07T07:55:07;3.92;;;1.10;;
34673;SDS011;20879;55.668;37.858;2023-05-07T07:57:39;2.33;;;0.90;;
34673;SDS011;20879;55.668;37.858;2023-05-07T08:00:16;1.90;;;1.00;;
34673;SDS011;20879;55.668;37.858;2023-05-07T08:05:36;2.47;;;1.08;;
34673;SDS011;20879;55.668;37.858;2023-05-07T08:08:06;2.67;;;0.93;;
34673;SDS011;20879;55.668;37.858;2023-05-07T08:10:38;1.15;;;1.00;;
34673;SDS011;20879;55.668;37.858;2023-05-07T08:13:15;3.10;;;0.80;;
34673;SDS011;20879;55.668;37.858;2023-05-07T08:15:48;1.58;;;1.08;;
34673;SDS011;20879;55.668;37.858;2023-05-07T08:18:23;2.58;;;1.00;;
34673;SDS011;20879;55.668;37.858;2023-05-07T08:20:56;1.73;;;1.17;;
34673;SDS011;20879;55.668;37.858;2023-05-07T08:23:26;3.08;;;0.90;;
34673;SDS011;20879;55.668;37.858;2023-05-07T08:25:55;4.05;;;0.80;;
34673;SDS011;20879;55.668;37.858;2023-05-07T08:28:25;0.95;;;0.88;;
34673;SDS011;20879;55.668;37.858;2023-05-07T08:30:57;1.27;;;0.90;;
34673;SDS011;20879;55.668;37.858;2023-05-07T08:33:31;2.40;;;1.02;;
34673;SDS011;20879;55.668;37.858;2023-05-07T08:36:03;1.65;;;1.17;;
34673;SDS011;20879;55.668;37.858;2023-05-07T08:38:39;3.97;;;0.95;;
34673;SDS011;20879;55.668;37.858;2023-05-07T08:41:12;3.28;;;0.80;;
34673;SDS011;20879;55.668;37.858;2023-05-07T08:43:45;1.38;;;1.05;;
34673;SDS011;20879;55.668;37.858;2023-05-07T08:46:20;1.20;;;1.00;;
34673;SDS011;20879;55.668;37.858;2023-05-07T08:48:54;0.80;;;0.80;;
34673;SDS011;20879;55.668;37.858;2023-05-07T08:51:23;1.00;;;0.80;;
34673;SDS011;20879;55.668;37.858;2023-05-07T08:53:53;2.80;;;1.00;;
34673;SDS011;20879;55.668;37.858;2023-05-07T08:56:28;5.63;;;1.02;;
34673;SDS011;20879;55.668;37.858;2023-05-07T08:58:58;1.77;;;1.10;;
34673;SDS011;20879;55.668;37.858;2023-05-07T09:01:34;1.48;;;0.77;;
34673;SDS011;20879;55.668;37.858;2023-05-07T09:04:16;0.93;;;0.80;;
34673;SDS011;20879;55.668;37.858;2023-05-07T09:06:46;0.98;;;0.85;;
34673;SDS011;20879;55.668;37.858;2023-05-07T09:09:21;2.50;;;1.20;;
34673;SDS011;20879;55.668;37.858;2023-05-07T09:11:56;1.10;;;0.80;;
34673;SDS011;20879;55.668;37.858;2023-05-07T09:14:30;5.57;;;1.02;;
34673;SDS011;20879;55.668;37.858;2023-05-07T09:19:39;1.45;;;1.00;;
34673;SDS011;20879;55.668;37.858;2023-05-07T09:22:08;2.70;;;0.90;;
34673;SDS011;20879;55.668;37.858;2023-05-07T09:24:48;1.15;;;1.00;;
34673;SDS011;20879;55.668;37.858;2023-05-07T09:27:26;1.27;;;1.00;;
34673;SDS011;20879;55.668;37.858;2023-05-07T09:29:58;2.05;;;0.88;;
34673;SDS011;20879;55.668;37.858;2023-05-07T09:32:33;1.15;;;0.90;;
34673;SDS011;20879;55.668;37.858;2023-05-07T09:35:14;1.77;;;1.02;;
34673;SDS011;20879;55.668;37.858;2023-05-07T09:37:50;0.70;;;0.70;;
34673;SDS011;20879;55.668;37.858;2023-05-07T09:40:22;0.60;;;0.60;;
34673;SDS011;20879;55.668;37.858;2023-05-07T09:42:56;1.13;;;0.90;;
34673;SDS011;20879;55.668;37.858;2023-05-07T09:45:40;1.70;;;1.05;;
34673;SDS011;20879;55.668;37.858;2023-05-07T09:48:20;1.08;;;1.00;;
34673;SDS011;20879;55.668;37.858;2023-05-07T09:50:54;1.33;;;0.93;;
34673;SDS011;20879;55.668;37.858;2023-05-07T09:53:30;2.45;;;1.00;;
34673;SDS011;20879;55.668;37.858;2023-05-07T09:56:11;1.75;;;1.10;;
34673;SDS011;20879;55.668;37.858;2023-05-07T09:58:42;1.02;;;0.90;;
34673;SDS011;20879;55.668;37.858;2023-05-07T10:01:14;3.65;;;1.13;;
34673;SDS011;20879;55.668;37.858;2023-05-07T10:03:50;1.40;;;0.95;;
34673;SDS011;20879;55.668;37.858;2023-05-07T10:06:21;1.30;;;1.20;;
34673;SDS011;20879;55.668;37.858;2023-05-07T10:08:53;1.13;;;1.02;;
34673;SDS011;20879;55.668;37.858;2023-05-07T10:11:23;1.50;;;1.00;;
34673;SDS011;20879;55.668;37.858;2023-05-07T10:13:54;1.45;;;0.90;;
34673;SDS011;20879;55.668;37.858;2023-05-07T10:16:23;2.28;;;1.30;;
34673;SDS011;20879;55.668;37.858;2023-05-07T10:18:56;1.77;;;1.30;;
34673;SDS011;20879;55.668;37.858;2023-05-07T10:24:05;1.42;;;0.73;;
34673;SDS011;20879;55.668;37.858;2023-05-07T10:26:42;2.35;;;0.77;;
34673;SDS011;20879;55.668;37.858;2023-05-07T10:29:28;2.47;;;1.25;;
34673;SDS011;20879;55.668;37.858;2023-05-07T10:35:17;1.88;;;1.13;;
34673;SDS011;20879;55.668;37.858;2023-05-07T10:37:57;2.05;;;1.05;;
34673;SDS011;20879;55.668;37.858;2023-05-07T10:40:30;3.85;;;1.50;;
34673;SDS011;20879;55.668;37.858;2023-05-07T10:43:02;1.05;;;0.93;;
34673;SDS011;20879;55.668;37.858;2023-05-07T10:58:23;0.80;;;0.80;;
34673;SDS011;20879;55.668;37.858;2023-05-07T11:01:17;1.48;;;1.05;;
34673;SDS011;20879;55.668;37.858;2023-05-07T11:04:31;1.20;;;1.10;;
34673;SDS011;20879;55.668;37.858;2023-05-07T11:07:24;1.63;;;0.98;;
34673;SDS011;20879;55.668;37.858;2023-05-07T11:10:05;3.03;;;1.15;;
34673;SDS011;20879;55.668;37.858;2023-05-07T11:12:51;0.65;;;0.63;;
34673;SDS011;20879;55.668;37.858;2023-05-07T11:15:42;1.75;;;1.15;;
34673;SDS011;20879;55.668;37.858;2023-05-07T11:18:41;0.98;;;0.90;;
34673;SDS011;20879;55.668;37.858;2023-05-07T11:21:34;1.45;;;0.82;;
34673;SDS011;20879;55.668;37.858;2023-05-07T11:24:25;3.65;;;1.23;;
34673;SDS011;20879;55.668;37.858;2023-05-07T11:26:59;3.17;;;1.00;;
34673;SDS011;20879;55.668;37.858;2023-05-07T11:29:32;1.27;;;0.98;;
34673;SDS011;20879;55.668;37.858;2023-05-07T11:32:14;1.55;;;1.00;;
34673;SDS011;20879;55.668;37.858;2023-05-07T11:34:51;3.28;;;1.25;;
34673;SDS011;20879;55.668;37.858;2023-05-07T11:37:22;1.20;;;1.10;;
34673;SDS011;20879;55.668;37.858;2023-05-07T11:40:05;1.63;;;1.23;;
34673;SDS011;20879;55.668;37.858;2023-05-07T11:42:38;3.25;;;1.45;;
34673;SDS011;20879;55.668;37.858;2023-05-07T11:45:12;1.50;;;1.40;;
34673;SDS011;20879;55.668;37.858;2023-05-07T11:47:52;2.00;;;1.50;;
34673;SDS011;20879;55.668;37.858;2023-05-07T11:50:22;1.30;;;1.13;;
34673;SDS011;20879;55.668;37.858;2023-05-07T11:52:51;2.65;;;1.10;;
34673;SDS011;20879;55.668;37.858;2023-05-07T11:55:21;3.17;;;1.08;;
34673;SDS011;20879;55.668;37.858;2023-05-07T11:57:52;1.15;;;0.90;;
34673;SDS011;20879;55.668;37.858;2023-05-07T12:00:23;3.67;;;1.20;;
34673;SDS011;20879;55.668;37.858;2023-05-07T12:02:53;1.25;;;0.93;;
34673;SDS011;20879;55.668;37.858;2023-05-07T12:05:23;1.52;;;1.10;;
34673;SDS011;20879;55.668;37.858;2023-05-07T12:07:55;2.03;;;1.00;;
34673;SDS011;20879;55.668;37.858;2023-05-07T12:10:25;1.15;;;0.77;;
34673;SDS011;20879;55.668;37.858;2023-05-07T12:12:54;4.63;;;1.42;;
34673;SDS011;20879;55.668;37.858;2023-05-07T12:15:26;2.72;;;1.13;;
34673;SDS011;20879;55.668;37.858;2023-05-07T12:17:56;1.65;;;1.25;;
34673;SDS011;20879;55.668;37.858;2023-05-07T12:20:26;1.98;;;1.13;;
34673;SDS011;20879;55.668;37.858;2023-05-07T12:22:56;3.67;;;1.48;;
34673;SDS011;20879;55.668;37.858;2023-05-07T12:25:30;1.73;;;1.27;;
34673;SDS011;20879;55.668;37.858;2023-05-07T12:28:00;3.85;;;1.10;;
34673;SDS011;20879;55.668;37.858;2023-05-07T12:30:36;1.27;;;1.08;;
34673;SDS011;20879;55.668;37.858;2023-05-07T12:33:07;3.40;;;1.35;;
34673;SDS011;20879;55.668;37.858;2023-05-07T12:35:37;2.22;;;1.38;;
34673;SDS011;20879;55.668;37.858;2023-05-07T12:38:08;1.20;;;1.10;;
34673;SDS011;20879;55.668;37.858;2023-05-07T12:40:43;1.95;;;1.40;;
34673;SDS011;20879;55.668;37.858;2023-05-07T12:43:16;3.60;;;0.95;;
34673;SDS011;20879;55.668;37.858;2023-05-07T12:51:39;2.03;;;1.55;;
34673;SDS011;20879;55.668;37.858;2023-05-07T12:54:08;5.50;;;1.40;;
34673;SDS011;20879;55.668;37.858;2023-05-07T12:56:37;2.67;;;1.10;;
34673;SDS011;20879;55.668;37.858;2023-05-07T13:01:44;2.65;;;1.45;;
34673;SDS011;20879;55.668;37.858;2023-05-07T13:04:14;3.30;;;1.58;;
34673;SDS011;20879;55.668;37.858;2023-05-07T13:06:45;3.95;;;1.23;;
34673;SDS011;20879;55.668;37.858;2023-05-07T13:12:01;2.67;;;1.35;;
34673;SDS011;20879;55.668;37.858;2023-05-07T13:14:36;1.58;;;1.48;;
34673;SDS011;20879;55.668;37.858;2023-05-07T13:17:06;4.35;;;1.20;;
34673;SDS011;20879;55.668;37.858;2023-05-07T13:19:36;1.27;;;1.17;;
34673;SDS011;20879;55.668;37.858;2023-05-07T13:22:07;2.28;;;1.00;;
34673;SDS011;20879;55.668;37.858;2023-05-07T13:24:38;3.22;;;1.15;;
34673;SDS011;20879;55.668;37.858;2023-05-07T13:27:13;1.98;;;1.15;;
34673;SDS011;20879;55.668;37.858;2023-05-07T13:29:47;1.83;;;0.88;;
34673;SDS011;20879;55.668;37.858;2023-05-07T13:32:17;1.17;;;1.02;;
34673;SDS011;20879;55.668;37.858;2023-05-07T13:34:46;1.00;;;0.90;;
34673;SDS011;20879;55.668;37.858;2023-05-07T13:37:17;1.42;;;0.98;;
34673;SDS011;20879;55.668;37.858;2023-05-07T13:39:47;1.70;;;1.05;;
34673;SDS011;20879;55.668;37.858;2023-05-07T13:42:16;1.52;;;1.38;;
34673;SDS011;20879;55.668;37.858;2023-05-07T13:44:46;1.52;;;1.25;;
34673;SDS011;20879;55.668;37.858;2023-05-07T13:47:16;1.77;;;1.00;;
34673;SDS011;20879;55.668;37.858;2023-05-07T13:49:48;2.38;;;1.30;;
34673;SDS011;20879;55.668;37.858;2023-05-07T13:52:19;3.05;;;1.27;;
34673;SDS011;20879;55.668;37.858;2023-05-07T13:54:49;2.70;;;1.20;;
34673;SDS011;20879;55.668;37.858;2023-05-07T13:57:19;3.20;;;1.40;;
34673;SDS011;20879;55.668;37.858;2023-05-07T13:59:55;0.70;;;0.70;;
34673;SDS011;20879;55.668;37.858;2023-05-07T14:02:24;1.63;;;1.20;;
34673;SDS011;20879;55.668;37.858;2023-05-07T14:04:54;2.78;;;1.20;;
34673;SDS011;20879;55.668;37.858;2023-05-07T14:07:25;3.03;;;1.15;;
34673;SDS011;20879;55.668;37.858;2023-05-07T14:09:55;1.83;;;1.48;;
34673;SDS011;20879;55.668;37.858;2023-05-07T14:12:25;1.83;;;0.80;;
34673;SDS011;20879;55.668;37.858;2023-05-07T14:14:54;1.55;;;1.40;;
34673;SDS011;20879;55.668;37.858;2023-05-07T14:17:24;1.50;;;1.23;;
34673;SDS011;20879;55.668;37.858;2023-05-07T14:19:53;3.35;;;1.35;;
34673;SDS011;20879;55.668;37.858;2023-05-07T14:22:23;3.67;;;1.27;;
34673;SDS011;20879;55.668;37.858;2023-05-07T14:25:00;1.38;;;1.27;;
34673;SDS011;20879;55.668;37.858;2023-05-07T14:27:47;1.75;;;1.27;;
34673;SDS011;20879;55.668;37.858;2023-05-07T14:30:16;2.20;;;1.02;;
34673;SDS011;20879;55.668;37.858;2023-05-07T14:32:46;2.10;;;1.40;;
34673;SDS011;20879;55.668;37.858;2023-05-07T14:35:15;2.00;;;1.48;;
34673;SDS011;20879;55.668;37.858;2023-05-07T14:37:47;2.78;;;1.50;;
34673;SDS011;20879;55.668;37.858;2023-05-07T14:40:17;1.70;;;1.25;;
34673;SDS011;20879;55.668;37.858;2023-05-07T14:42:46;3.47;;;1.45;;
34673;SDS011;20879;55.668;37.858;2023-05-07T14:45:16;3.88;;;1.33;;
34673;SDS011;20879;55.668;37.858;2023-05-07T14:47:45;4.35;;;1.27;;
34673;SDS011;20879;55.668;37.858;2023-05-07T14:50:15;4.30;;;1.40;;
34673;SDS011;20879;55.668;37.858;2023-05-07T14:52:44;3.00;;;1.40;;
34673;SDS011;20879;55.668;37.858;2023-05-07T14:55:16;1.63;;;1.40;;
34673;SDS011;20879;55.668;37.858;2023-05-07T14:57:50;2.25;;;1.30;;
34673;SDS011;20879;55.668;37.858;2023-05-07T15:00:20;1.65;;;1.33;;
34673;SDS011;20879;55.668;37.858;2023-05-07T15:02:49;3.92;;;1.42;;
34673;SDS011;20879;55.668;37.858;2023-05-07T15:05:19;4.18;;;1.52;;
34673;SDS011;20879;55.668;37.858;2023-05-07T15:07:48;3.38;;;1.50;;
34673;SDS011;20879;55.668;37.858;2023-05-07T15:10:25;1.48;;;1.30;;
34673;SDS011;20879;55.668;37.858;2023-05-07T15:12:54;2.63;;;1.58;;
34673;SDS011;20879;55.668;37.858;2023-05-07T15:15:23;1.10;;;0.93;;
34673;SDS011;20879;55.668;37.858;2023-05-07T15:17:54;2.75;;;1.33;;
34673;SDS011;20879;55.668;37.858;2023-05-07T15:20:23;2.00;;;1.10;;
34673;SDS011;20879;55.668;37.858;2023-05-07T15:22:53;3.25;;;1.40;;
34673;SDS011;20879;55.668;37.858;2023-05-07T15:25:29;1.98;;;1.30;;
34673;SDS011;20879;55.668;37.858;2023-05-07T15:28:00;2.95;;;1.15;;
34673;SDS011;20879;55.668;37.858;2023-05-07T15:30:29;1.92;;;0.88;;
34673;SDS011;20879;55.668;37.858;2023-05-07T15:33:00;2.63;;;1.30;;
34673;SDS011;20879;55.668;37.858;2023-05-07T15:35:32;2.60;;;1.35;;
34673;SDS011;20879;55.668;37.858;2023-05-07T15:38:06;3.28;;;1.30;;
34673;SDS011;20879;55.668;37.858;2023-05-07T15:40:39;4.22;;;2.05;;
34673;SDS011;20879;55.668;37.858;2023-05-07T15:43:10;2.10;;;1.70;;
34673;SDS011;20879;55.668;37.858;2023-05-07T15:45:47;1.42;;;1.10;;
34673;SDS011;20879;55.668;37.858;2023-05-07T15:48:17;3.42;;;1.50;;